Time;durP1;ratioP1;P1;durP2;ratioP2;P2;SDS_P1;SDS_P2;PMS_P1;PMS_P2;Temp;Humidity;BMP_temperature;BMP_pressure;BME280_temperature;BME280_humidity;BME280_pressure;Samples;Min_cycle;Max_cycle;Signal;HPM_P1;HPM_P2
2022/08/07 00:00:30;;;;;;;0.00;0.00;;;13.50;99.90;;;;;;4960266;28;20534;-67
2022/08/07 00:02:57;;;;;;;0.00;0.00;;;13.50;99.90;;;;;;4960469;28;20454;-67
2022/08/07 00:05:27;;;;;;;0.00;0.00;;;13.50;99.90;;;;;;4960414;28;20855;-68
2022/08/07 00:07:56;;;;;;;0.00;0.00;;;13.50;99.90;;;;;;4960292;28;20585;-68
2022/08/07 00:10:28;;;;;;;0.00;0.00;;;13.50;99.90;;;;;;4960317;28;20505;-67
2022/08/07 00:13:01;;;;;;;0.00;0.00;;;13.50;99.90;;;;;;4960415;28;20465;-67
2022/08/07 00:15:45;;;;;;;0.00;0.00;;;13.50;99.90;;;;;;4960772;28;20671;-67
2022/08/07 00:18:20;;;;;;;0.00;0.00;;;13.50;99.90;;;;;;4960119;28;20975;-67
2022/08/07 00:20:52;;;;;;;0.00;0.00;;;13.40;99.90;;;;;;4960153;28;20779;-67
2022/08/07 00:23:20;;;;;;;0.00;0.00;;;13.40;99.90;;;;;;4960172;28;20549;-67
2022/08/07 00:25:50;;;;;;;0.00;0.00;;;13.40;99.90;;;;;;4959920;28;20678;-67
2022/08/07 00:28:28;;;;;;;0.00;0.00;;;13.40;99.90;;;;;;4959821;28;20460;-67
2022/08/07 00:31:02;;;;;;;0.00;0.00;;;13.30;99.90;;;;;;4959871;28;21019;-67
2022/08/07 00:33:34;;;;;;;0.00;0.00;;;13.30;99.90;;;;;;4959552;28;20459;-67
2022/08/07 00:36:03;;;;;;;0.00;0.00;;;13.30;99.90;;;;;;4959536;28;20518;-67
2022/08/07 00:38:31;;;;;;;0.00;0.00;;;13.20;99.90;;;;;;4960174;28;20925;-67
2022/08/07 00:41:01;;;;;;;0.00;0.00;;;13.20;99.90;;;;;;4959941;28;20444;-68
2022/08/07 00:43:29;;;;;;;0.00;0.00;;;13.10;99.90;;;;;;4962064;28;20810;-68
2022/08/07 00:46:16;;;;;;;0.00;0.00;;;13.10;99.90;;;;;;4960699;28;20479;-68
2022/08/07 00:48:44;;;;;;;0.00;0.00;;;13.10;99.90;;;;;;4960339;28;20490;-68
2022/08/07 00:51:18;;;;;;;0.00;0.00;;;13.00;99.90;;;;;;4960095;28;20455;-68
2022/08/07 00:53:47;;;;;;;0.00;0.00;;;13.00;99.90;;;;;;4960031;28;20443;-68
2022/08/07 00:56:24;;;;;;;0.00;0.00;;;13.00;99.90;;;;;;4959471;28;20870;-68
2022/08/07 00:59:01;;;;;;;0.00;0.00;;;13.00;99.90;;;;;;4959311;28;20546;-68
2022/08/07 01:01:29;;;;;;;0.00;0.00;;;13.10;99.90;;;;;;4959623;28;20802;-68
2022/08/07 01:04:11;;;;;;;0.00;0.00;;;13.10;99.90;;;;;;4958874;28;20450;-68
2022/08/07 01:06:51;;;;;;;0.00;0.00;;;13.00;99.90;;;;;;4959941;28;20815;-68
2022/08/07 01:09:21;;;;;;;0.00;0.00;;;13.00;99.90;;;;;;4959532;28;20470;-67
2022/08/07 01:12:10;;;;;;;0.00;0.00;;;13.00;99.90;;;;;;4959613;28;20444;-67
2022/08/07 01:14:58;;;;;;;0.00;0.00;;;13.00;99.90;;;;;;4959449;28;20436;-67
2022/08/07 01:17:31;;;;;;;0.00;0.00;;;12.90;99.90;;;;;;4959259;28;20490;-67
2022/08/07 01:20:05;;;;;;;0.00;0.00;;;12.90;99.90;;;;;;4958940;28;21010;-67
2022/08/07 01:22:36;;;;;;;0.00;0.00;;;12.80;99.90;;;;;;4959413;28;20831;-67
2022/08/07 01:25:14;;;;;;;0.00;0.00;;;12.80;99.90;;;;;;4959080;28;21104;-68
2022/08/07 01:28:02;;;;;;;0.00;0.00;;;12.90;99.90;;;;;;4959202;28;20987;-67
2022/08/07 01:30:31;;;;;;;0.00;0.00;;;12.80;99.90;;;;;;4959537;28;20432;-67
2022/08/07 01:32:59;;;;;;;0.00;0.00;;;12.80;99.90;;;;;;4959336;28;20450;-67
2022/08/07 01:35:29;;;;;;;0.00;0.00;;;12.80;99.90;;;;;;4959181;28;21011;-67
2022/08/07 01:38:19;;;;;;;0.00;0.00;;;12.80;99.90;;;;;;4959311;28;20464;-67
2022/08/07 01:40:54;;;;;;;0.00;0.00;;;12.80;99.90;;;;;;4959091;28;20717;-67
2022/08/07 01:43:23;;;;;;;0.00;0.00;;;12.80;99.90;;;;;;4959134;28;21001;-67
2022/08/07 01:45:53;;;;;;;0.00;0.00;;;12.80;99.90;;;;;;4958917;28;20486;-67
2022/08/07 01:48:21;;;;;;;0.00;0.00;;;12.80;99.90;;;;;;4958865;28;20467;-68
2022/08/07 01:51:00;;;;;;;0.00;0.00;;;12.80;99.90;;;;;;4959155;28;20451;-68
2022/08/07 01:53:52;;;;;;;0.00;0.00;;;12.80;99.90;;;;;;4959817;28;20447;-68
2022/08/07 01:56:46;;;;;;;0.00;0.00;;;12.70;99.90;;;;;;4960118;28;21070;-68
2022/08/07 01:59:32;;;;;;;0.00;0.00;;;12.70;99.90;;;;;;4959655;28;20463;-67
2022/08/07 02:02:05;;;;;;;0.00;0.00;;;12.70;99.90;;;;;;4959178;28;20809;-68
2022/08/07 02:04:40;;;;;;;0.00;0.00;;;12.70;99.90;;;;;;4958917;28;20835;-68
2022/08/07 02:07:28;;;;;;;0.00;0.00;;;12.70;99.90;;;;;;4958977;28;20487;-68
2022/08/07 02:10:21;;;;;;;0.00;0.00;;;12.70;99.90;;;;;;4958518;28;20815;-69
2022/08/07 02:12:50;;;;;;;0.00;0.00;;;12.60;99.90;;;;;;4958650;28;20451;-68
2022/08/07 02:15:21;;;;;;;0.00;0.00;;;12.60;99.90;;;;;;4961162;28;21042;-67
2022/08/07 02:21:11;;;;;;;0.00;0.00;;;12.50;99.90;;;;;;5608144;23;20471;-92
2022/08/07 02:24:03;;;;;;;0.00;0.00;;;12.60;99.90;;;;;;4974703;28;20696;-93
2022/08/07 02:26:40;;;;;;;0.00;0.00;;;12.50;99.90;;;;;;4969220;29;20468;-91
2022/08/07 02:29:15;;;;;;;0.00;0.00;;;12.50;99.90;;;;;;4968002;28;20487;-90
2022/08/07 02:31:52;;;;;;;0.00;0.00;;;12.40;99.90;;;;;;4967655;28;20492;-89
2022/08/07 02:34:26;;;;;;;0.00;0.00;;;12.40;99.90;;;;;;4966653;29;20457;-94
2022/08/07 02:37:08;;;;;;;0.00;0.00;;;12.40;99.90;;;;;;4973152;28;20500;-91
2022/08/07 02:39:42;;;;;;;0.00;0.00;;;12.40;99.90;;;;;;4966675;28;20463;-92
2022/08/07 02:42:37;;;;;;;0.00;0.00;;;12.40;99.90;;;;;;4964910;28;20545;-91
2022/08/07 02:45:14;;;;;;;0.00;0.00;;;12.40;99.90;;;;;;4965261;29;20459;-91
2022/08/07 02:48:24;;;;;;;0.00;0.00;;;12.40;99.90;;;;;;4962975;28;20766;-92
2022/08/07 02:51:10;;;;;;;0.00;0.00;;;12.40;99.90;;;;;;4965014;29;20460;-92
2022/08/07 02:54:03;;;;;;;0.00;0.00;;;12.30;99.90;;;;;;4964696;28;20470;-92
2022/08/07 02:56:49;;;;;;;0.00;0.00;;;12.20;99.90;;;;;;4964080;28;20430;-89
2022/08/07 02:59:24;;;;;;;0.00;0.00;;;12.20;99.90;;;;;;4964085;29;20483;-91
2022/08/07 03:02:04;;;;;;;0.00;0.00;;;12.20;99.90;;;;;;4961291;28;20475;-93
2022/08/07 03:04:39;;;;;;;0.00;0.00;;;12.20;99.90;;;;;;4965033;29;20476;-92
2022/08/07 03:07:13;;;;;;;0.00;0.00;;;12.20;99.90;;;;;;4964174;29;20547;-93
2022/08/07 03:10:16;;;;;;;0.00;0.00;;;12.20;99.90;;;;;;4963459;28;20445;-92
2022/08/07 03:12:56;;;;;;;0.00;0.00;;;12.20;99.90;;;;;;4965398;28;20568;-93
2022/08/07 03:15:35;;;;;;;0.00;0.00;;;12.20;99.90;;;;;;4964485;29;20457;-91
2022/08/07 03:18:32;;;;;;;0.00;0.00;;;12.20;99.90;;;;;;4961347;29;20560;-92
2022/08/07 03:21:06;;;;;;;0.00;0.00;;;12.10;99.90;;;;;;4965351;29;20704;-93
2022/08/07 03:23:39;;;;;;;0.00;0.00;;;12.10;99.90;;;;;;4967152;28;20572;-91
2022/08/07 03:26:40;;;;;;;0.00;0.00;;;12.10;99.90;;;;;;4962997;28;20748;-91
2022/08/07 03:29:35;;;;;;;0.00;0.00;;;12.20;99.90;;;;;;4965764;28;20457;-93
2022/08/07 03:32:33;;;;;;;0.00;0.00;;;12.10;99.90;;;;;;4965122;28;20481;-93
2022/08/07 03:35:14;;;;;;;0.00;0.00;;;12.10;99.90;;;;;;4969881;28;20515;-92
2022/08/07 03:37:50;;;;;;;0.00;0.00;;;12.10;99.90;;;;;;4972115;28;20448;-92
2022/08/07 03:40:27;;;;;;;0.00;0.00;;;12.00;99.90;;;;;;4972547;28;20448;-93
2022/08/07 03:43:14;;;;;;;0.00;0.00;;;12.10;99.90;;;;;;4970428;28;20543;-92
2022/08/07 03:45:44;;;;;;;0.00;0.00;;;12.10;99.90;;;;;;4968943;28;20448;-90
2022/08/07 03:48:20;;;;;;;0.00;0.00;;;12.10;99.90;;;;;;4969921;28;20487;-92
2022/08/07 03:53:57;;;;;;;0.00;0.00;;;12.10;99.90;;;;;;4949739;28;20859;-91
2022/08/07 03:57:13;;;;;;;0.00;0.00;;;12.00;99.90;;;;;;4948254;28;20446;-92
2022/08/07 04:00:25;;;;;;;0.00;0.00;;;12.00;99.90;;;;;;4944222;29;20441;-91
2022/08/07 04:03:00;;;;;;;0.00;0.00;;;12.00;99.90;;;;;;4937790;29;20620;-92
2022/08/07 04:05:54;;;;;;;0.00;0.00;;;12.00;99.90;;;;;;4938729;29;20449;-91
2022/08/07 04:08:43;;;;;;;0.00;0.00;;;12.00;99.90;;;;;;4937870;29;20669;-93
2022/08/07 04:11:24;;;;;;;0.00;0.00;;;12.00;99.90;;;;;;4937068;29;20615;-92
2022/08/07 04:14:20;;;;;;;0.00;0.00;;;12.00;99.90;;;;;;4945329;29;20526;-93
2022/08/07 04:17:09;;;;;;;0.00;0.00;;;12.10;99.90;;;;;;4942588;29;20450;-92
2022/08/07 04:20:09;;;;;;;0.00;0.00;;;12.10;99.90;;;;;;4955600;28;20562;-92
2022/08/07 04:22:43;;;;;;;0.00;0.00;;;12.10;99.90;;;;;;4960901;28;20870;-94
2022/08/07 04:25:36;;;;;;;0.00;0.00;;;12.10;99.90;;;;;;4960163;29;20449;-92
2022/08/07 04:28:31;;;;;;;0.00;0.00;;;12.10;99.90;;;;;;4970826;28;20491;-93
2022/08/07 04:31:20;;;;;;;0.00;0.00;;;12.10;99.90;;;;;;4969985;28;20533;-91
2022/08/07 04:34:18;;;;;;;0.00;0.00;;;12.20;99.90;;;;;;4962776;29;20465;-91
2022/08/07 04:37:04;;;;;;;0.00;0.00;;;12.30;99.90;;;;;;4961210;28;20448;-92
2022/08/07 04:39:50;;;;;;;0.00;0.00;;;12.30;99.90;;;;;;4970872;28;20445;-92
2022/08/07 04:42:26;;;;;;;0.00;0.00;;;12.30;99.90;;;;;;4961608;28;20555;-92
2022/08/07 04:45:00;;;;;;;0.00;0.00;;;12.30;99.90;;;;;;4963462;29;20452;-90
2022/08/07 04:47:45;;;;;;;0.00;0.00;;;12.30;99.90;;;;;;4965413;29;20484;-91
2022/08/07 04:50:35;;;;;;;0.00;0.00;;;12.40;99.90;;;;;;4965908;28;20467;-91
2022/08/07 04:53:12;;;;;;;0.00;0.00;;;12.40;99.90;;;;;;4964877;28;20827;-94
2022/08/07 04:56:15;;;;;;;0.00;0.00;;;12.40;99.90;;;;;;4959913;29;20461;-92
2022/08/07 04:59:19;;;;;;;0.00;0.00;;;12.60;99.90;;;;;;4961305;28;20508;-91
2022/08/07 05:02:21;;;;;;;0.00;0.00;;;12.70;99.90;;;;;;4962520;28;20476;-91
2022/08/07 05:05:02;;;;;;;0.00;0.00;;;12.70;99.90;;;;;;4963751;29;20599;-92
2022/08/07 05:08:02;;;;;;;0.00;0.00;;;12.70;99.90;;;;;;4965947;29;20774;-91
2022/08/07 05:10:47;;;;;;;0.00;0.00;;;12.80;99.90;;;;;;4966749;28;20449;-91
2022/08/07 05:13:38;;;;;;;0.00;0.00;;;12.80;99.90;;;;;;4970077;28;20531;-92
2022/08/07 05:16:35;;;;;;;0.00;0.00;;;12.90;99.90;;;;;;4967504;28;20658;-94
2022/08/07 05:19:16;;;;;;;0.00;0.00;;;13.00;99.90;;;;;;4967993;28;20437;-93
2022/08/07 05:22:02;;;;;;;0.00;0.00;;;13.10;99.90;;;;;;4968841;28;20488;-92
2022/08/07 05:27:19;;;;;;;0.00;0.00;;;13.20;99.90;;;;;;4928929;29;20769;-94
2022/08/07 05:30:11;;;;;;;0.00;0.00;;;13.30;99.90;;;;;;4930108;29;20474;-92
2022/08/07 05:32:58;;;;;;;0.00;0.00;;;13.40;99.90;;;;;;4930287;29;20679;-92
2022/08/07 05:35:31;;;;;;;0.00;0.00;;;13.40;99.90;;;;;;4929615;29;20470;-92
2022/08/07 05:38:09;;;;;;;0.00;0.00;;;13.50;99.90;;;;;;4928546;29;20441;-92
2022/08/07 05:40:38;;;;;;;0.00;0.00;;;13.60;99.90;;;;;;4930786;29;20435;-92
2022/08/07 05:43:18;;;;;;;0.00;0.00;;;13.70;99.90;;;;;;4928443;29;20474;-91
2022/08/07 05:46:09;;;;;;;0.00;0.00;;;13.80;99.90;;;;;;4929566;29;20447;-94
2022/08/07 05:48:42;;;;;;;0.00;0.00;;;13.90;99.90;;;;;;4929230;29;20481;-89
2022/08/07 05:51:26;;;;;;;0.00;0.00;;;13.90;99.90;;;;;;4946570;28;20452;-93
2022/08/07 05:54:06;;;;;;;0.00;0.00;;;14.00;99.90;;;;;;4975552;28;20455;-91
2022/08/07 05:56:58;;;;;;;0.00;0.00;;;14.10;99.90;;;;;;4978401;28;20432;-92
2022/08/07 05:59:29;;;;;;;0.00;0.00;;;14.20;99.90;;;;;;4976860;28;20467;-93
2022/08/07 06:02:27;;;;;;;0.00;0.00;;;14.30;99.90;;;;;;4978776;28;20533;-91
2022/08/07 06:05:04;;;;;;;0.00;0.00;;;14.40;99.90;;;;;;4978873;28;20479;-89
2022/08/07 06:07:38;;;;;;;0.00;0.00;;;14.50;99.90;;;;;;4977737;28;20512;-91
2022/08/07 06:10:33;;;;;;;0.40;0.00;;;14.60;99.90;;;;;;4977783;28;20440;-91
2022/08/07 06:16:00;;;;;;;0.00;0.00;;;14.70;99.90;;;;;;4978862;28;20428;-90
2022/08/07 06:22:02;;;;;;;0.00;0.00;;;15.00;99.90;;;;;;4961706;23;20496;-68
2022/08/07 06:24:49;;;;;;;0.00;0.00;;;15.10;99.90;;;;;;4943259;29;20437;-67
2022/08/07 06:27:25;;;;;;;0.00;0.00;;;15.20;99.90;;;;;;4943256;28;20471;-68
2022/08/07 06:30:13;;;;;;;0.00;0.00;;;15.30;99.90;;;;;;4943485;29;20444;-68
2022/08/07 06:33:02;;;;;;;0.00;0.00;;;15.40;99.90;;;;;;4943250;28;20440;-68
2022/08/07 06:35:32;;;;;;;0.00;0.00;;;15.60;99.90;;;;;;4943325;28;20551;-69
2022/08/07 06:38:14;;;;;;;0.00;0.00;;;15.70;99.90;;;;;;4943323;28;20548;-66
2022/08/07 06:40:50;;;;;;;0.00;0.00;;;15.80;99.90;;;;;;4943339;29;20940;-68
2022/08/07 06:43:21;;;;;;;0.00;0.00;;;15.90;99.90;;;;;;4943263;29;20472;-68
2022/08/07 06:45:50;;;;;;;0.00;0.00;;;16.00;99.90;;;;;;4942953;29;20531;-68
2022/08/07 06:48:18;;;;;;;0.00;0.00;;;16.10;99.90;;;;;;4943332;28;20759;-66
2022/08/07 06:50:54;;;;;;;0.00;0.00;;;16.20;99.90;;;;;;4943540;29;20823;-70
2022/08/07 06:53:24;;;;;;;0.00;0.00;;;16.30;99.90;;;;;;4942853;28;20448;-68
2022/08/07 06:56:13;;;;;;;0.00;0.00;;;16.40;99.90;;;;;;4942969;29;20448;-68
2022/08/07 06:58:43;;;;;;;0.00;0.00;;;16.40;99.90;;;;;;4942753;28;20464;-67
2022/08/07 07:01:32;;;;;;;0.00;0.00;;;16.50;99.90;;;;;;4943138;28;20814;-70
2022/08/07 07:04:17;;;;;;;0.00;0.00;;;16.50;99.90;;;;;;4942950;29;20543;-68
2022/08/07 07:07:01;;;;;;;0.00;0.00;;;16.60;99.90;;;;;;4943165;29;20449;-71
2022/08/07 07:09:46;;;;;;;0.00;0.00;;;16.60;99.90;;;;;;4942670;29;20507;-67
2022/08/07 07:12:23;;;;;;;0.00;0.00;;;16.60;99.90;;;;;;4943238;29;20477;-67
2022/08/07 07:15:02;;;;;;;0.00;0.00;;;16.70;99.90;;;;;;4943100;29;20738;-68
2022/08/07 07:17:41;;;;;;;0.00;0.00;;;16.80;99.90;;;;;;4942792;28;20460;-67
2022/08/07 07:20:21;;;;;;;0.00;0.00;;;16.90;99.90;;;;;;4942455;29;20737;-68
2022/08/07 07:22:52;;;;;;;0.00;0.00;;;17.00;99.90;;;;;;4942250;28;20838;-67
2022/08/07 07:25:41;;;;;;;0.00;0.00;;;17.10;99.90;;;;;;4947720;29;20441;-68
2022/08/07 07:28:36;;;;;;;0.00;0.00;;;17.20;99.90;;;;;;4946709;28;20477;-68
2022/08/07 07:31:28;;;;;;;0.00;0.00;;;17.30;99.90;;;;;;4945020;29;20438;-68
2022/08/07 07:34:09;;;;;;;0.00;0.00;;;17.40;99.90;;;;;;4942551;29;20434;-68
2022/08/07 07:36:39;;;;;;;0.00;0.00;;;17.40;99.90;;;;;;4942526;29;20452;-67
2022/08/07 07:39:11;;;;;;;0.00;0.00;;;17.40;99.90;;;;;;4942031;28;20458;-68
2022/08/07 07:41:42;;;;;;;0.00;0.00;;;17.50;99.90;;;;;;4942239;29;20520;-67
2022/08/07 07:44:32;;;;;;;0.00;0.00;;;17.60;99.90;;;;;;4942312;29;20604;-66
2022/08/07 07:47:03;;;;;;;0.00;0.00;;;17.60;99.90;;;;;;4942333;29;20673;-68
2022/08/07 07:49:51;;;;;;;0.00;0.00;;;17.70;99.90;;;;;;4944243;29;20477;-68
2022/08/07 07:52:41;;;;;;;0.00;0.00;;;17.80;99.90;;;;;;4942340;29;20451;-68
2022/08/07 07:55:10;;;;;;;0.00;0.00;;;17.80;99.90;;;;;;4942458;29;20447;-66
2022/08/07 07:57:40;;;;;;;0.00;0.00;;;17.80;99.90;;;;;;4941720;28;20464;-66
2022/08/07 08:00:21;;;;;;;0.00;0.00;;;17.90;99.90;;;;;;4941238;29;20713;-66
2022/08/07 08:03:03;;;;;;;0.00;0.00;;;17.80;99.90;;;;;;4941595;29;20477;-66
2022/08/07 08:05:38;;;;;;;0.00;0.00;;;18.00;99.90;;;;;;4941606;29;20466;-66
2022/08/07 08:08:23;;;;;;;0.00;0.00;;;18.00;99.90;;;;;;4941934;28;20484;-66
2022/08/07 08:11:06;;;;;;;0.00;0.00;;;18.10;99.90;;;;;;4949054;29;20442;-66
2022/08/07 08:13:39;;;;;;;0.00;0.00;;;18.20;99.90;;;;;;4944935;29;20745;-66
2022/08/07 08:16:27;;;;;;;0.00;0.00;;;18.20;99.90;;;;;;4941028;29;20453;-66
2022/08/07 08:18:58;;;;;;;0.00;0.00;;;18.30;99.90;;;;;;4940833;28;20542;-66
2022/08/07 08:27:48;;;;;;;0.00;0.00;;;18.50;99.90;;;;;;4940899;28;20468;-66
2022/08/07 08:30:30;;;;;;;0.00;0.00;;;18.50;99.90;;;;;;4940576;29;20493;-66
2022/08/07 08:33:04;;;;;;;0.00;0.00;;;18.60;99.90;;;;;;4940826;29;20963;-65
2022/08/07 08:35:39;;;;;;;0.00;0.00;;;18.70;99.90;;;;;;4940786;29;20457;-66
2022/08/07 08:38:20;;;;;;;0.00;0.00;;;18.70;99.90;;;;;;4940516;28;20460;-66
2022/08/07 08:41:02;;;;;;;0.00;0.00;;;18.80;99.90;;;;;;4940297;29;20597;-66
2022/08/07 08:43:39;;;;;;;0.00;0.00;;;18.90;99.90;;;;;;4940383;29;20632;-66
2022/08/07 08:46:16;;;;;;;0.00;0.00;;;18.90;99.90;;;;;;4940520;29;20868;-66
2022/08/07 08:48:55;;;;;;;0.00;0.00;;;19.00;99.90;;;;;;4939923;28;20471;-65
2022/08/07 08:51:30;;;;;;;0.00;0.00;;;19.10;99.90;;;;;;4940004;29;20481;-65
2022/08/07 08:54:24;;;;;;;0.00;0.00;;;19.20;99.90;;;;;;4940450;29;20618;-65
2022/08/07 08:56:54;;;;;;;0.00;0.00;;;19.20;99.90;;;;;;4940354;29;20443;-65
2022/08/07 08:59:31;;;;;;;0.00;0.00;;;19.30;99.90;;;;;;4939771;28;20496;-66
2022/08/07 09:02:27;;;;;;;0.00;0.00;;;19.40;99.90;;;;;;4940126;29;20750;-65
2022/08/07 09:05:16;;;;;;;0.00;0.00;;;19.40;99.90;;;;;;4940117;29;21202;-66
2022/08/07 09:07:49;;;;;;;0.00;0.00;;;19.40;99.90;;;;;;4940278;28;20463;-66
2022/08/07 09:10:29;;;;;;;0.00;0.00;;;19.30;99.90;;;;;;4940254;29;20770;-65
2022/08/07 09:13:08;;;;;;;0.00;0.00;;;19.30;99.90;;;;;;4939938;29;20721;-66
2022/08/07 09:15:48;;;;;;;0.00;0.00;;;19.40;99.90;;;;;;4939733;29;20798;-66
2022/08/07 09:18:56;;;;;;;0.00;0.00;;;19.50;99.90;;;;;;4939645;28;20491;-66
2022/08/07 09:21:33;;;;;;;0.00;0.00;;;19.60;99.90;;;;;;4939651;29;20456;-66
2022/08/07 09:24:34;;;;;;;0.00;0.00;;;19.70;99.90;;;;;;4940942;28;21087;-66
2022/08/07 09:27:29;;;;;;;0.00;0.00;;;19.70;99.90;;;;;;4944382;28;20696;-66
2022/08/07 09:30:19;;;;;;;0.00;0.00;;;19.90;99.90;;;;;;4943960;29;20738;-66
2022/08/07 09:33:02;;;;;;;0.00;0.00;;;20.00;99.90;;;;;;4943703;29;20734;-66
2022/08/07 09:35:47;;;;;;;0.00;0.00;;;20.00;99.90;;;;;;4944058;29;20453;-66
2022/08/07 09:38:42;;;;;;;0.00;0.00;;;20.00;99.90;;;;;;4943798;28;20472;-66
2022/08/07 09:41:28;;;;;;;0.00;0.00;;;20.10;99.90;;;;;;4943386;29;20440;-66
2022/08/07 09:44:22;;;;;;;0.00;0.00;;;20.20;99.90;;;;;;4943508;29;20480;-66
2022/08/07 09:47:31;;;;;;;0.00;0.00;;;20.20;99.90;;;;;;4943225;28;20449;-65
2022/08/07 09:50:34;;;;;;;0.00;0.00;;;20.30;99.90;;;;;;4943013;28;20482;-65
2022/08/07 09:53:05;;;;;;;0.00;0.00;;;20.30;99.90;;;;;;4943914;29;20440;-65
2022/08/07 09:55:57;;;;;;;0.00;0.00;;;20.50;99.90;;;;;;4943028;29;20707;-66
2022/08/07 09:59:00;;;;;;;0.00;0.00;;;20.50;99.90;;;;;;4943205;28;20516;-65
2022/08/07 10:01:53;;;;;;;0.00;0.00;;;20.50;99.90;;;;;;4943198;29;20538;-66
2022/08/07 10:04:33;;;;;;;0.00;0.00;;;20.50;99.90;;;;;;4943198;29;20503;-65
2022/08/07 10:07:32;;;;;;;0.00;0.00;;;20.70;99.90;;;;;;4943448;28;20444;-65
2022/08/07 10:10:30;;;;;;;0.00;0.00;;;20.80;99.90;;;;;;4943557;28;21037;-65
2022/08/07 10:13:35;;;;;;;0.00;0.00;;;20.80;99.90;;;;;;4943669;29;20673;-65
2022/08/07 10:16:46;;;;;;;0.00;0.00;;;20.80;99.90;;;;;;4943941;29;20983;-66
2022/08/07 10:19:25;;;;;;;0.00;0.00;;;20.80;99.90;;;;;;4942869;28;20520;-65
2022/08/07 10:22:07;;;;;;;0.00;0.00;;;20.70;99.90;;;;;;4942935;28;20557;-66
2022/08/07 10:24:55;;;;;;;0.00;0.00;;;20.90;99.90;;;;;;4942574;29;20638;-65
2022/08/07 10:27:49;;;;;;;0.00;0.00;;;21.10;99.90;;;;;;4943633;28;20451;-65
2022/08/07 10:30:20;;;;;;;0.00;0.00;;;21.30;99.90;;;;;;4942638;29;20579;-65
2022/08/07 10:33:22;;;;;;;0.00;0.00;;;21.50;99.90;;;;;;4942632;29;20437;-65
2022/08/07 10:36:23;;;;;;;0.00;0.00;;;21.40;99.90;;;;;;4942483;28;20452;-65
2022/08/07 10:39:02;;;;;;;0.00;0.00;;;21.30;99.90;;;;;;4942746;28;20469;-67
2022/08/07 10:41:36;;;;;;;0.00;0.00;;;21.30;99.90;;;;;;4942470;29;20629;-66
2022/08/07 10:44:31;;;;;;;0.00;0.00;;;21.40;99.90;;;;;;4942455;29;20453;-66
2022/08/07 10:47:15;;;;;;;0.00;0.00;;;21.60;99.90;;;;;;4942715;28;20618;-66
2022/08/07 10:49:50;;;;;;;0.00;0.00;;;21.80;99.90;;;;;;4941661;29;20457;-66
2022/08/07 10:52:27;;;;;;;0.00;0.00;;;21.80;99.90;;;;;;4942641;29;20446;-66
2022/08/07 10:55:11;;;;;;;0.00;0.00;;;21.90;99.90;;;;;;4942026;29;20455;-66
2022/08/07 10:58:13;;;;;;;0.00;0.00;;;22.00;99.90;;;;;;4942071;28;20472;-67
2022/08/07 11:00:57;;;;;;;0.00;0.00;;;21.90;99.90;;;;;;4941532;29;20950;-66
2022/08/07 11:03:37;;;;;;;0.00;0.00;;;21.80;99.90;;;;;;4942364;29;20466;-66
2022/08/07 11:06:30;;;;;;;0.00;0.00;;;21.80;99.90;;;;;;4941862;29;20449;-66
2022/08/07 11:09:02;;;;;;;0.00;0.00;;;21.80;99.90;;;;;;4942018;28;20768;-67
2022/08/07 11:11:44;;;;;;;0.00;0.00;;;21.70;99.90;;;;;;4941551;29;20493;-66
2022/08/07 11:14:25;;;;;;;0.00;0.00;;;21.70;99.90;;;;;;4941994;29;20445;-66
2022/08/07 11:17:17;;;;;;;0.00;0.00;;;21.70;99.90;;;;;;4941611;28;21072;-66
2022/08/07 11:20:10;;;;;;;0.00;0.00;;;21.60;99.90;;;;;;4941855;29;20442;-66
2022/08/07 11:22:48;;;;;;;0.00;0.00;;;21.60;99.90;;;;;;4941689;28;21095;-66
2022/08/07 11:25:22;;;;;;;0.00;0.00;;;21.70;99.90;;;;;;4941654;29;20879;-66
2022/08/07 11:27:57;;;;;;;0.00;0.00;;;21.70;99.90;;;;;;4941380;28;20548;-66
2022/08/07 11:30:42;;;;;;;0.00;0.00;;;21.70;99.90;;;;;;4941257;29;20640;-66
2022/08/07 11:33:18;;;;;;;0.00;0.00;;;21.70;99.90;;;;;;4941452;29;20447;-66
2022/08/07 11:36:16;;;;;;;0.00;0.00;;;21.80;99.90;;;;;;4941785;29;20438;-66
2022/08/07 11:39:03;;;;;;;0.00;0.00;;;21.80;99.90;;;;;;4941240;28;20472;-65
2022/08/07 11:41:44;;;;;;;0.00;0.00;;;21.90;99.90;;;;;;4941203;29;20447;-65
2022/08/07 11:44:39;;;;;;;0.00;0.00;;;21.90;99.90;;;;;;4941370;29;20465;-65
2022/08/07 11:47:37;;;;;;;0.00;0.00;;;21.90;99.90;;;;;;4940167;28;20728;-65
2022/08/07 11:50:34;;;;;;;0.00;0.00;;;21.90;99.90;;;;;;4940737;29;20723;-65
2022/08/07 11:53:24;;;;;;;0.00;0.00;;;21.90;99.90;;;;;;4940719;29;20853;-65
2022/08/07 11:56:05;;;;;;;0.00;0.00;;;21.70;99.90;;;;;;4940349;29;20543;-65
2022/08/07 11:59:06;;;;;;;0.00;0.00;;;21.50;99.90;;;;;;4939943;28;20986;-66
2022/08/07 12:02:07;;;;;;;0.00;0.00;;;21.60;99.90;;;;;;4940653;29;20835;-66
2022/08/07 12:05:01;;;;;;;0.00;0.00;;;21.60;99.90;;;;;;4940796;29;20944;-66
2022/08/07 12:07:48;;;;;;;0.00;0.00;;;21.80;99.90;;;;;;4940257;28;20945;-66
2022/08/07 12:10:35;;;;;;;0.00;0.00;;;21.90;99.90;;;;;;4940422;29;20442;-66
2022/08/07 12:13:15;;;;;;;0.00;0.00;;;22.00;99.90;;;;;;4940755;29;20698;-66
2022/08/07 12:16:05;;;;;;;0.00;0.00;;;22.20;99.90;;;;;;4941039;29;20581;-66
2022/08/07 12:18:44;;;;;;;0.00;0.00;;;22.50;99.90;;;;;;4940753;28;20465;-65
2022/08/07 12:21:28;;;;;;;0.00;0.00;;;22.60;99.90;;;;;;4939907;28;20460;-66
2022/08/07 12:24:20;;;;;;;0.00;0.00;;;22.50;99.90;;;;;;4940108;29;20442;-66
2022/08/07 12:27:10;;;;;;;0.00;0.00;;;22.50;99.90;;;;;;4940078;28;20790;-65
2022/08/07 12:29:54;;;;;;;0.00;0.00;;;22.60;99.90;;;;;;4939907;29;20447;-65
2022/08/07 12:32:29;;;;;;;0.00;0.00;;;22.70;99.70;;;;;;4940574;29;20490;-65
2022/08/07 12:35:02;;;;;;;0.00;0.00;;;22.80;99.90;;;;;;4940256;29;20464;-65
2022/08/07 12:37:38;;;;;;;0.00;0.00;;;23.00;99.90;;;;;;4940283;28;20731;-65
2022/08/07 12:40:30;;;;;;;0.00;0.00;;;23.20;99.90;;;;;;4940509;29;20456;-65
2022/08/07 12:43:20;;;;;;;0.00;0.00;;;23.30;99.90;;;;;;4940625;29;20597;-65
2022/08/07 12:46:20;;;;;;;0.00;0.00;;;23.40;99.90;;;;;;4940247;29;20963;-65
2022/08/07 12:49:04;;;;;;;0.00;0.00;;;23.40;99.90;;;;;;4940076;28;20823;-66
2022/08/07 12:52:00;;;;;;;0.00;0.00;;;23.50;99.90;;;;;;4939733;29;20620;-66
2022/08/07 12:54:58;;;;;;;0.00;0.00;;;23.60;99.70;;;;;;4939897;29;20532;-66
2022/08/07 12:57:35;;;;;;;0.00;0.00;;;23.80;99.60;;;;;;4939635;28;20490;-66
2022/08/07 13:00:31;;;;;;;0.00;0.00;;;23.80;99.40;;;;;;4939943;29;20981;-66
2022/08/07 13:03:22;;;;;;;0.00;0.00;;;23.90;99.40;;;;;;4939661;29;20533;-65
2022/08/07 13:06:20;;;;;;;0.00;0.00;;;24.00;98.50;;;;;;4939737;29;20445;-65
2022/08/07 13:09:01;;;;;;;0.00;0.00;;;23.90;98.70;;;;;;4939862;28;20477;-65
2022/08/07 13:12:00;;;;;;;0.00;0.00;;;23.80;99.00;;;;;;4939711;29;20484;-65
2022/08/07 13:14:51;;;;;;;0.00;0.00;;;23.60;98.60;;;;;;4939898;29;20702;-65
2022/08/07 13:17:30;;;;;;;0.00;0.00;;;23.60;98.60;;;;;;4939960;28;20469;-65
2022/08/07 13:20:15;;;;;;;0.00;0.00;;;23.50;98.80;;;;;;4940934;29;20823;-65
2022/08/07 13:22:52;;;;;;;0.00;0.00;;;23.50;98.40;;;;;;4940639;28;20475;-65
2022/08/07 13:25:28;;;;;;;0.00;0.00;;;23.50;98.50;;;;;;4940623;29;20448;-66
2022/08/07 13:28:03;;;;;;;0.00;0.00;;;23.40;98.80;;;;;;4939821;28;20880;-65
2022/08/07 13:30:43;;;;;;;0.00;0.00;;;23.30;98.90;;;;;;4939960;29;20679;-66
2022/08/07 13:33:34;;;;;;;0.00;0.00;;;23.10;98.80;;;;;;4939457;29;20517;-65
2022/08/07 13:36:28;;;;;;;0.00;0.00;;;23.00;98.30;;;;;;4939559;29;20435;-65
2022/08/07 13:39:02;;;;;;;0.00;0.00;;;23.00;98.70;;;;;;4939681;28;20467;-65
2022/08/07 13:41:42;;;;;;;0.00;0.00;;;23.10;98.60;;;;;;4939578;29;20559;-65
2022/08/07 13:44:21;;;;;;;0.00;0.00;;;23.20;98.40;;;;;;4939417;29;20844;-65
2022/08/07 13:46:57;;;;;;;0.00;0.00;;;23.30;98.70;;;;;;4939621;29;20459;-65
2022/08/07 13:49:33;;;;;;;0.00;0.00;;;23.40;98.70;;;;;;4938991;28;20949;-65
2022/08/07 13:52:22;;;;;;;0.00;0.00;;;23.50;98.70;;;;;;4939750;29;20493;-65
2022/08/07 13:55:06;;;;;;;0.00;0.00;;;23.70;98.40;;;;;;4939141;29;20437;-65
2022/08/07 13:57:40;;;;;;;0.00;0.00;;;23.70;98.30;;;;;;4938993;28;20546;-66
2022/08/07 14:00:36;;;;;;;0.00;0.00;;;23.70;97.90;;;;;;4938589;29;20442;-65
2022/08/07 14:03:07;;;;;;;0.00;0.00;;;23.60;98.00;;;;;;4939382;29;20440;-65
2022/08/07 14:05:41;;;;;;;0.00;0.00;;;23.50;98.50;;;;;;4939261;29;20430;-65
2022/08/07 14:08:10;;;;;;;0.00;0.00;;;23.30;98.70;;;;;;4938873;28;20791;-66
2022/08/07 14:10:40;;;;;;;0.00;0.00;;;23.20;98.20;;;;;;4940530;28;20444;-65
2022/08/07 14:13:15;;;;;;;0.00;0.00;;;23.20;98.20;;;;;;4943065;29;20562;-65
2022/08/07 14:15:55;;;;;;;0.00;0.00;;;23.20;98.20;;;;;;4942901;29;20464;-65
2022/08/07 14:18:28;;;;;;;0.00;0.00;;;23.10;98.40;;;;;;4942583;28;20477;-66
2022/08/07 14:21:05;;;;;;;0.00;0.00;;;23.20;98.30;;;;;;4942651;28;20467;-65
2022/08/07 14:23:53;;;;;;;0.00;0.00;;;23.10;98.40;;;;;;4942305;28;20527;-65
2022/08/07 14:26:37;;;;;;;0.00;0.00;;;23.10;98.60;;;;;;4942843;29;20507;-65
2022/08/07 14:29:11;;;;;;;0.00;0.00;;;23.10;98.50;;;;;;4942266;28;20474;-65